createdAt,value
2018-12-24T00:00:44.882Z,99.90
2018-12-24T00:06:48.018Z,99.90
2018-12-24T00:09:49.324Z,99.90
2018-12-24T00:12:50.558Z,99.90
2018-12-24T00:15:51.487Z,99.90
2018-12-24T00:18:52.776Z,99.90
2018-12-24T00:21:53.853Z,99.90
2018-12-24T00:24:55.428Z,99.90
2018-12-24T00:27:56.099Z,99.90
2018-12-24T00:30:56.742Z,99.90
2018-12-24T00:33:57.929Z,99.90
2018-12-24T00:36:59.483Z,99.90
2018-12-24T00:40:00.764Z,99.90
2018-12-24T00:43:02.368Z,99.90
2018-12-24T00:46:03.817Z,99.90
2018-12-24T00:49:05.255Z,99.90
2018-12-24T00:52:06.805Z,99.90
2018-12-24T00:55:07.946Z,99.90
2018-12-24T00:58:07.478Z,99.90
2018-12-24T01:01:16.295Z,99.90
2018-12-24T01:04:17.400Z,99.90
2018-12-24T01:07:18.666Z,99.90
2018-12-24T01:10:19.904Z,99.90
2018-12-24T01:13:20.870Z,99.90
2018-12-24T01:16:22.101Z,99.90
2018-12-24T01:19:23.299Z,99.90
2018-12-24T01:22:13.912Z,99.90
2018-12-24T01:25:22.494Z,99.90
2018-12-24T01:28:23.392Z,99.90
2018-12-24T01:31:24.503Z,99.90
2018-12-24T01:34:25.925Z,99.90
2018-12-24T01:37:27.202Z,99.90
2018-12-24T01:40:28.417Z,99.90
2018-12-24T01:43:29.978Z,99.90
2018-12-24T01:46:30.714Z,99.90
2018-12-24T01:49:31.961Z,99.90
2018-12-24T01:52:32.980Z,99.90
2018-12-24T01:55:34.114Z,99.90
2018-12-24T01:58:35.686Z,99.90
2018-12-24T02:01:36.415Z,99.90
2018-12-24T02:04:37.800Z,99.90
2018-12-24T02:07:38.827Z,99.90
2018-12-24T02:10:39.718Z,99.90
2018-12-24T02:13:40.886Z,99.90
2018-12-24T02:16:42.073Z,99.90
2018-12-24T02:19:43.941Z,99.90
2018-12-24T02:22:46.336Z,99.90
2018-12-24T02:25:50.725Z,99.90
2018-12-24T02:28:51.736Z,99.90
2018-12-24T02:31:53.098Z,99.90
2018-12-24T02:34:52.748Z,99.90
2018-12-24T02:38:01.211Z,99.90
2018-12-24T02:41:02.896Z,99.90
2018-12-24T02:44:03.926Z,99.90
2018-12-24T02:47:05.126Z,99.90
2018-12-24T02:50:06.145Z,99.90
2018-12-24T02:53:07.828Z,99.90
2018-12-24T02:56:08.842Z,99.90
2018-12-24T02:59:10.166Z,99.90
2018-12-24T03:02:00.526Z,99.90
2018-12-24T03:04:51.629Z,99.90
2018-12-24T03:07:52.953Z,99.90
2018-12-24T03:10:54.531Z,99.90
2018-12-24T03:13:56.001Z,99.90
2018-12-24T03:16:56.726Z,99.90
2018-12-24T03:19:57.558Z,99.90
2018-12-24T03:22:58.594Z,99.90
2018-12-24T03:26:00.222Z,99.90
2018-12-24T03:29:01.254Z,99.90
2018-12-24T03:35:24.270Z,99.90
2018-12-24T03:38:25.545Z,99.90
2018-12-24T03:41:26.823Z,99.90
2018-12-24T03:44:28.098Z,99.90
2018-12-24T03:47:29.645Z,99.90
2018-12-24T03:50:30.744Z,99.90
2018-12-24T03:53:31.824Z,99.90
2018-12-24T03:56:32.959Z,99.90
2018-12-24T03:59:34.557Z,99.90
2018-12-24T04:02:35.444Z,99.90
2018-12-24T04:05:36.462Z,99.90
2018-12-24T04:08:37.654Z,99.90
2018-12-24T04:11:38.551Z,99.90
2018-12-24T04:14:40.166Z,99.90
2018-12-24T04:17:41.064Z,99.90
2018-12-24T04:20:41.726Z,99.90
2018-12-24T04:23:42.627Z,99.90
2018-12-24T04:26:43.844Z,99.90
2018-12-24T04:29:45.254Z,99.90
2018-12-24T04:32:46.299Z,99.90
2018-12-24T04:35:47.522Z,99.90
2018-12-24T04:38:48.343Z,99.90
2018-12-24T04:41:38.790Z,99.90
2018-12-24T04:44:47.348Z,99.90
2018-12-24T04:47:48.709Z,99.90
2018-12-24T04:50:50.151Z,99.90
2018-12-24T04:53:51.293Z,99.90
2018-12-24T04:56:52.635Z,99.90
2018-12-24T04:59:54.086Z,99.90
2018-12-24T05:02:54.934Z,99.90
2018-12-24T05:05:56.634Z,99.90
2018-12-24T05:08:57.861Z,99.90
2018-12-24T05:15:00.593Z,99.90
2018-12-24T05:18:02.110Z,99.90
2018-12-24T05:21:03.210Z,99.90
2018-12-24T05:24:04.946Z,99.90
2018-12-24T05:27:05.701Z,99.90
2018-12-24T05:30:07.161Z,99.90
2018-12-24T05:33:08.646Z,99.90
2018-12-24T05:36:10.009Z,99.90
2018-12-24T05:39:11.135Z,99.90
2018-12-24T05:42:12.554Z,99.90
2018-12-24T05:45:13.325Z,99.90
2018-12-24T05:48:14.005Z,99.90
2018-12-24T05:51:15.034Z,99.90
2018-12-24T05:54:16.331Z,99.90
2018-12-24T05:57:17.338Z,99.90
2018-12-24T06:00:19.037Z,99.90
2018-12-24T06:03:20.703Z,99.90
2018-12-24T06:06:22.044Z,99.90
2018-12-24T06:09:22.872Z,99.90
2018-12-24T06:12:24.356Z,99.90
2018-12-24T06:15:25.583Z,99.90
2018-12-24T06:18:27.154Z,99.90
2018-12-24T06:21:28.327Z,99.90
2018-12-24T06:24:29.481Z,99.90
2018-12-24T06:27:31.097Z,99.90
2018-12-24T06:30:31.835Z,99.90
2018-12-24T06:33:33.232Z,99.90
2018-12-24T06:36:34.429Z,99.90
2018-12-24T06:45:52.602Z,99.90
2018-12-24T06:48:53.739Z,99.90
2018-12-24T06:51:55.150Z,99.90
2018-12-24T06:54:56.418Z,99.90
2018-12-24T06:57:58.066Z,99.90
2018-12-24T07:00:58.913Z,99.90
2018-12-24T07:04:00.453Z,99.90
2018-12-24T07:07:01.097Z,99.90
2018-12-24T07:10:02.483Z,99.90
2018-12-24T07:13:03.754Z,99.90
2018-12-24T07:16:04.981Z,99.90
2018-12-24T07:19:06.345Z,99.90
2018-12-24T07:22:07.747Z,99.90
2018-12-24T07:25:09.351Z,99.90
2018-12-24T07:28:11.164Z,99.90
2018-12-24T07:31:12.775Z,99.90
2018-12-24T07:34:13.815Z,99.90
2018-12-24T07:37:15.677Z,99.90
2018-12-24T07:40:16.877Z,99.90
2018-12-24T07:43:17.706Z,99.90
2018-12-24T07:46:19.108Z,99.90
2018-12-24T07:49:20.408Z,99.90
2018-12-24T07:52:21.996Z,99.90
2018-12-24T07:55:22.744Z,99.90
2018-12-24T07:58:24.101Z,99.90
2018-12-24T08:01:13.655Z,99.90
2018-12-24T08:04:22.476Z,99.90
2018-12-24T08:07:23.302Z,99.90
2018-12-24T08:10:24.889Z,99.90
2018-12-24T08:13:26.298Z,99.90
2018-12-24T08:16:27.369Z,99.90
2018-12-24T08:19:28.267Z,99.90
2018-12-24T08:22:29.369Z,99.90
2018-12-24T08:25:30.975Z,99.90
2018-12-24T08:28:32.474Z,99.90
2018-12-24T08:31:33.897Z,99.90
2018-12-24T08:34:35.386Z,99.90
2018-12-24T08:37:36.542Z,99.90
2018-12-24T08:40:38.006Z,99.90
2018-12-24T08:43:49.091Z,99.90
2018-12-24T08:46:48.872Z,99.90
2018-12-24T08:49:57.561Z,99.90
2018-12-24T08:52:47.547Z,99.90
2018-12-24T08:55:56.161Z,99.90
2018-12-24T08:58:44.827Z,99.90
2018-12-24T09:01:46.345Z,99.90
2018-12-24T09:04:47.947Z,99.90
2018-12-24T09:07:49.419Z,99.90
2018-12-24T09:10:51.897Z,99.90
2018-12-24T09:13:52.793Z,99.90
2018-12-24T09:16:53.475Z,99.90
2018-12-24T09:19:58.004Z,99.90
2018-12-24T09:22:59.515Z,99.90
2018-12-24T09:26:00.774Z,99.90
2018-12-24T09:29:01.688Z,99.90
2018-12-24T09:32:03.149Z,99.90
2018-12-24T09:35:04.967Z,99.90
2018-12-24T09:41:05.822Z,99.90
2018-12-24T09:44:06.963Z,99.90
2018-12-24T09:46:56.355Z,99.90
2018-12-24T09:56:07.854Z,99.90
2018-12-24T09:59:09.006Z,99.90
2018-12-24T10:02:19.817Z,99.90
2018-12-24T10:05:21.190Z,99.90
2018-12-24T10:08:22.593Z,99.90
2018-12-24T10:11:23.624Z,99.90
2018-12-24T10:17:18.386Z,99.90
2018-12-24T10:23:47.014Z,99.90
2018-12-24T10:26:48.344Z,99.90
2018-12-24T10:29:50.266Z,99.90
2018-12-24T10:32:51.319Z,99.90
2018-12-24T10:35:52.871Z,99.90
2018-12-24T10:38:54.127Z,99.90
2018-12-24T10:41:55.562Z,99.90
2018-12-24T10:44:57.258Z,99.90
2018-12-24T10:47:58.009Z,99.90
2018-12-24T10:50:59.486Z,99.90
2018-12-24T10:54:01.208Z,91.80
2018-12-24T10:57:03.338Z,71.90
2018-12-24T11:00:04.105Z,67.60
2018-12-24T11:03:05.378Z,57.30
2018-12-24T11:06:07.119Z,51.00
2018-12-24T11:09:08.621Z,50.20
2018-12-24T11:12:12.633Z,51.80
2018-12-24T11:15:14.017Z,72.80
2018-12-24T11:18:15.330Z,84.00
2018-12-24T11:21:16.534Z,93.40
2018-12-24T11:24:18.015Z,82.60
2018-12-24T11:27:19.598Z,97.90
2018-12-24T11:30:20.413Z,99.90
2018-12-24T11:33:21.998Z,99.90
2018-12-24T11:36:27.905Z,99.90
2018-12-24T11:39:29.035Z,99.90
2018-12-24T11:42:30.156Z,99.90
2018-12-24T11:48:33.546Z,99.90
2018-12-24T11:51:42.034Z,99.90
2018-12-24T11:54:43.453Z,99.90
2018-12-24T11:57:44.571Z,99.90
2018-12-24T12:00:46.509Z,99.90
2018-12-24T12:03:47.163Z,99.90
2018-12-24T12:06:48.394Z,99.90
2018-12-24T12:09:49.392Z,99.90
2018-12-24T12:12:50.478Z,99.90
2018-12-24T12:15:52.010Z,99.90
2018-12-24T12:18:55.370Z,99.90
2018-12-24T12:21:56.697Z,99.90
2018-12-24T12:24:58.145Z,99.90
2018-12-24T12:31:21.613Z,99.90
2018-12-24T12:34:22.777Z,99.90
2018-12-24T12:37:24.243Z,99.90
2018-12-24T12:40:25.426Z,99.90
2018-12-24T12:43:26.885Z,99.90
2018-12-24T12:46:28.070Z,99.90
2018-12-24T12:49:29.395Z,99.90
2018-12-24T12:52:30.547Z,99.90
2018-12-24T12:55:31.881Z,99.90
2018-12-24T12:58:33.045Z,99.90
2018-12-24T13:01:33.844Z,99.90
2018-12-24T13:04:34.598Z,99.90
2018-12-24T13:07:35.989Z,99.90
2018-12-24T13:10:37.433Z,99.90
2018-12-24T13:13:38.823Z,99.90
2018-12-24T13:16:40.107Z,99.90
2018-12-24T13:19:41.358Z,99.90
2018-12-24T13:22:42.545Z,99.90
2018-12-24T13:25:43.585Z,99.90
2018-12-24T13:28:44.906Z,99.90
2018-12-24T13:31:46.258Z,99.90
2018-12-24T13:34:47.458Z,99.90
2018-12-24T13:37:48.666Z,99.90
2018-12-24T13:40:50.253Z,99.90
2018-12-24T13:43:51.465Z,99.90
2018-12-24T13:46:52.905Z,99.90
2018-12-24T13:49:59.337Z,99.90
2018-12-24T13:53:10.816Z,99.90
2018-12-24T13:56:12.285Z,99.90
2018-12-24T13:59:13.769Z,99.90
2018-12-24T14:02:16.499Z,99.90
2018-12-24T14:05:06.588Z,99.90
2018-12-24T14:11:15.287Z,99.90
2018-12-24T14:14:16.234Z,99.90
2018-12-24T14:17:55.010Z,99.90
2018-12-24T14:20:51.650Z,99.90
2018-12-24T14:23:59.897Z,99.90
2018-12-24T14:27:01.646Z,99.90
2018-12-24T14:30:03.452Z,99.90
2018-12-24T14:32:53.136Z,99.90
2018-12-24T14:36:01.508Z,99.90
2018-12-24T14:39:03.394Z,99.90
2018-12-24T14:41:54.487Z,99.90
2018-12-24T14:45:02.605Z,99.90
2018-12-24T14:48:03.382Z,99.90
2018-12-24T14:51:04.450Z,99.90
2018-12-24T14:54:05.816Z,99.90
2018-12-24T14:57:07.091Z,99.90
2018-12-24T14:59:57.146Z,99.90
2018-12-24T15:03:05.787Z,99.90
2018-12-24T15:06:06.934Z,99.90
2018-12-24T15:09:08.479Z,99.90
2018-12-24T15:12:13.416Z,99.90
2018-12-24T15:15:14.851Z,99.90
2018-12-24T15:18:15.718Z,99.90
2018-12-24T15:21:16.577Z,99.90
2018-12-24T15:24:17.307Z,99.90
2018-12-24T15:27:18.550Z,99.90
2018-12-24T15:30:21.897Z,99.90
2018-12-24T15:33:22.798Z,99.90
2018-12-24T15:36:23.940Z,99.90
2018-12-24T15:39:24.673Z,99.90
2018-12-24T15:42:25.499Z,99.90
2018-12-24T15:45:26.401Z,99.90
2018-12-24T15:48:17.857Z,99.90
2018-12-24T15:51:26.326Z,99.90
2018-12-24T15:54:27.060Z,99.90
2018-12-24T15:57:27.788Z,99.90
2018-12-24T16:03:36.949Z,99.90
2018-12-24T16:06:38.056Z,99.90
2018-12-24T16:09:39.497Z,99.90
2018-12-24T16:12:45.354Z,99.90
2018-12-24T16:15:46.545Z,99.90
2018-12-24T16:18:37.656Z,99.90
2018-12-24T16:21:46.141Z,99.90
2018-12-24T16:24:47.350Z,99.90
2018-12-24T16:27:47.985Z,99.90
2018-12-24T16:30:48.689Z,99.90
2018-12-24T16:36:46.211Z,99.90
2018-12-24T16:39:47.247Z,99.90
2018-12-24T16:42:48.053Z,99.90
2018-12-24T16:45:49.036Z,99.90
2018-12-24T16:48:49.611Z,99.90
2018-12-24T16:51:52.266Z,99.90
2018-12-24T16:54:53.207Z,99.90
2018-12-24T16:57:53.869Z,99.90
2018-12-24T17:00:54.292Z,99.90
2018-12-24T17:03:55.457Z,99.90
2018-12-24T17:06:56.539Z,99.90
2018-12-24T17:09:57.478Z,99.90
2018-12-24T17:12:58.982Z,99.90
2018-12-24T17:16:00.106Z,99.90
2018-12-24T17:18:49.605Z,99.90
2018-12-24T17:21:57.762Z,99.90
2018-12-24T17:24:58.939Z,99.90
2018-12-24T17:27:59.503Z,99.90
2018-12-24T17:30:49.964Z,99.90
2018-12-24T17:33:58.112Z,99.90
2018-12-24T17:36:59.545Z,99.90
2018-12-24T17:40:00.705Z,99.90
2018-12-24T17:43:01.631Z,99.90
2018-12-24T17:46:02.767Z,99.90
2018-12-24T17:49:06.504Z,99.90
2018-12-24T17:52:09.027Z,99.90
2018-12-24T17:55:08.796Z,99.90
2018-12-24T17:58:13.254Z,99.90
2018-12-24T18:01:15.069Z,99.90
2018-12-24T18:04:04.038Z,99.90
2018-12-24T18:06:53.121Z,99.90
2018-12-24T18:09:52.675Z,99.90
2018-12-24T18:12:55.106Z,99.90
2018-12-24T18:15:59.339Z,99.90
2018-12-24T18:19:00.737Z,99.90
2018-12-24T18:24:57.852Z,99.90
2018-12-24T18:28:00.634Z,99.90
2018-12-24T18:30:51.657Z,99.90
2018-12-24T18:33:59.991Z,99.90
2018-12-24T18:37:00.974Z,99.90
2018-12-24T18:39:51.291Z,99.90
2018-12-24T18:42:59.713Z,99.90
2018-12-24T18:46:00.634Z,99.90
2018-12-24T18:49:01.473Z,99.90
2018-12-24T18:52:02.519Z,99.90
2018-12-24T18:55:03.447Z,99.90
2018-12-24T18:58:04.382Z,99.90
2018-12-24T19:01:04.977Z,99.90
2018-12-24T19:04:05.505Z,99.90
2018-12-24T19:07:06.406Z,99.90
2018-12-24T19:10:07.776Z,99.90
2018-12-24T19:13:08.492Z,99.90
2018-12-24T19:16:09.000Z,99.90
2018-12-24T19:19:09.762Z,99.90
2018-12-24T19:22:10.951Z,99.90
2018-12-24T19:25:11.726Z,99.90
2018-12-24T19:28:12.525Z,99.90
2018-12-24T19:31:13.115Z,99.90
2018-12-24T19:34:14.416Z,99.90
2018-12-24T19:37:15.092Z,99.90
2018-12-24T19:43:17.410Z,99.90
2018-12-24T19:46:18.058Z,99.90
2018-12-24T19:49:18.680Z,99.90
2018-12-24T19:52:19.183Z,99.90
2018-12-24T19:55:20.281Z,99.90
2018-12-24T19:58:09.775Z,99.90
2018-12-24T20:00:59.942Z,99.90
2018-12-24T20:04:01.399Z,99.90
2018-12-24T20:07:02.355Z,99.90
2018-12-24T20:10:03.473Z,99.90
2018-12-24T20:13:04.199Z,99.90
2018-12-24T20:16:05.201Z,99.90
2018-12-24T20:19:05.601Z,99.90
2018-12-24T20:22:06.553Z,99.90
2018-12-24T20:25:07.705Z,99.90
2018-12-24T20:31:40.502Z,99.90
2018-12-24T20:35:08.185Z,99.90
2018-12-24T20:38:09.182Z,99.90
2018-12-24T20:41:10.157Z,99.90
2018-12-24T20:44:11.287Z,99.90
2018-12-24T20:47:11.921Z,99.90
2018-12-24T20:50:12.919Z,99.90
2018-12-24T20:53:14.194Z,99.90
2018-12-24T20:56:15.110Z,99.90
2018-12-24T20:59:16.098Z,99.90
2018-12-24T21:02:19.466Z,99.90
2018-12-24T21:05:20.487Z,99.90
2018-12-24T21:08:21.606Z,99.90
2018-12-24T21:11:22.734Z,99.90
2018-12-24T21:14:24.017Z,99.90
2018-12-24T21:17:25.352Z,99.90
2018-12-24T21:20:26.303Z,99.90
2018-12-24T21:23:15.866Z,99.90
2018-12-24T21:26:24.054Z,99.90
2018-12-24T21:29:25.849Z,99.90
2018-12-24T21:32:26.509Z,99.90
2018-12-24T21:35:27.203Z,99.90
2018-12-24T21:38:28.176Z,99.90
2018-12-24T21:41:29.659Z,99.90
2018-12-24T21:44:30.645Z,99.90
2018-12-24T21:47:35.573Z,99.90
2018-12-24T21:50:36.124Z,99.90
2018-12-24T21:53:36.923Z,99.90
2018-12-24T21:56:38.992Z,99.90
2018-12-24T21:59:47.268Z,99.90
2018-12-24T22:02:55.431Z,99.90
2018-12-24T22:05:44.482Z,99.90
2018-12-24T22:08:52.734Z,99.90
2018-12-24T22:11:55.522Z,99.90
2018-12-24T22:14:56.577Z,99.90
2018-12-24T22:17:58.123Z,99.90
2018-12-24T22:20:59.613Z,99.90
2018-12-24T22:24:00.157Z,99.90
2018-12-24T22:27:01.123Z,99.90
2018-12-24T22:30:02.389Z,99.90
2018-12-24T22:33:03.700Z,99.90
2018-12-24T22:36:04.779Z,99.90
2018-12-24T22:39:05.587Z,99.90
2018-12-24T22:42:06.717Z,99.90
2018-12-24T22:45:07.405Z,99.90
2018-12-24T22:48:08.122Z,99.90
2018-12-24T22:53:57.921Z,99.90
2018-12-24T22:57:06.381Z,99.90
2018-12-24T23:00:07.489Z,99.90
2018-12-24T23:03:08.226Z,99.90
2018-12-24T23:06:09.159Z,99.90
2018-12-24T23:09:10.201Z,99.90
2018-12-24T23:12:10.765Z,99.90
2018-12-24T23:15:12.014Z,99.90
2018-12-24T23:18:13.473Z,99.90
2018-12-24T23:21:02.680Z,99.90
2018-12-24T23:24:11.664Z,99.90
2018-12-24T23:27:12.701Z,99.90
2018-12-24T23:30:13.880Z,99.90
2018-12-24T23:33:15.224Z,99.90
2018-12-24T23:36:16.421Z,99.90
2018-12-24T23:39:17.934Z,99.90
2018-12-24T23:42:18.485Z,99.90
2018-12-24T23:45:19.134Z,99.90
2018-12-24T23:48:20.033Z,99.90
2018-12-24T23:51:20.997Z,99.90
2018-12-24T23:54:21.752Z,99.90
2018-12-24T23:57:22.215Z,99.90
